createdAt,value
2023-05-18T00:02:50.712Z,102471.89
2023-05-18T00:07:03.646Z,102473.07
2023-05-18T00:09:26.584Z,102472.51
2023-05-18T00:12:35.166Z,102473.94
2023-05-18T00:15:51.819Z,102466.48
2023-05-18T00:22:34.048Z,102469.69
2023-05-18T00:25:43.896Z,102470.48
2023-05-18T00:28:53.235Z,102468.60
2023-05-18T00:31:42.840Z,102464.79
2023-05-18T00:34:50.783Z,102463.63
2023-05-18T00:38:01.145Z,102461.58
2023-05-18T00:41:10.073Z,102459.84
2023-05-18T00:48:16.278Z,102459.91
2023-05-18T00:51:23.284Z,102460.22
2023-05-18T00:54:39.899Z,102458.85
2023-05-18T00:57:42.323Z,102463.37
2023-05-18T01:00:31.028Z,102465.58
2023-05-18T01:03:24.615Z,102466.55
2023-05-18T01:06:41.859Z,102464.84
2023-05-18T01:09:44.501Z,102468.52
2023-05-18T01:16:22.697Z,102461.35
2023-05-18T01:19:30.754Z,102457.66
2023-05-18T01:22:49.635Z,102454.98
2023-05-18T01:27:18.419Z,102460.48
2023-05-18T01:30:30.507Z,102457.63
2023-05-18T01:33:54.938Z,102457.61
2023-05-18T01:37:03.475Z,102460.61
2023-05-18T01:39:55.037Z,102460.86
2023-05-18T01:42:43.710Z,102462.98
2023-05-18T01:45:45.735Z,102462.50
2023-05-18T01:48:28.175Z,102462.24
2023-05-18T01:51:14.712Z,102465.98
2023-05-18T01:54:13.248Z,102461.57
2023-05-18T01:56:54.766Z,102459.59
2023-05-18T01:59:43.897Z,102464.82
2023-05-18T02:02:25.754Z,102459.77
2023-05-18T02:05:00.496Z,102455.36
2023-05-18T02:07:36.923Z,102454.59
2023-05-18T02:10:11.088Z,102457.77
2023-05-18T02:13:10.729Z,102458.70
2023-05-18T02:16:02.747Z,102453.95
2023-05-18T02:18:36.744Z,102449.96
2023-05-18T02:25:11.280Z,102445.45
2023-05-18T02:27:41.997Z,102445.99
2023-05-18T02:30:11.660Z,102443.90
2023-05-18T02:32:42.924Z,102443.09
2023-05-18T02:35:20.134Z,102447.25
2023-05-18T02:37:51.007Z,102445.36
2023-05-18T02:40:48.480Z,102448.13
2023-05-18T02:43:19.508Z,102441.45
2023-05-18T02:45:51.520Z,102440.50
2023-05-18T02:48:34.248Z,102441.88
2023-05-18T02:51:16.371Z,102434.04
2023-05-18T02:53:55.016Z,102431.56
2023-05-18T02:56:23.616Z,102429.85
2023-05-18T02:58:58.036Z,102430.73
2023-05-18T03:01:37.424Z,102428.88
2023-05-18T03:04:09.346Z,102427.65
2023-05-18T03:06:38.471Z,102429.64
2023-05-18T03:09:09.738Z,102432.36
2023-05-18T03:11:37.838Z,102437.16
2023-05-18T03:14:06.051Z,102437.64
2023-05-18T03:16:38.986Z,102440.02
2023-05-18T03:19:07.449Z,102437.90
2023-05-18T03:21:45.298Z,102438.70
2023-05-18T03:24:51.485Z,102439.66
2023-05-18T03:27:25.849Z,102436.08
2023-05-18T03:29:54.386Z,102437.08
2023-05-18T03:32:24.766Z,102433.54
2023-05-18T03:34:53.185Z,102434.80
2023-05-18T03:37:21.206Z,102430.36
2023-05-18T03:39:52.123Z,102430.41
2023-05-18T03:42:23.528Z,102427.48
2023-05-18T03:44:52.357Z,102426.71
2023-05-18T03:47:22.287Z,102429.32
2023-05-18T03:49:50.175Z,102432.46
2023-05-18T03:52:22.327Z,102435.15
2023-05-18T03:54:51.559Z,102432.17
2023-05-18T03:57:22.833Z,102430.92
2023-05-18T04:00:29.169Z,102429.61
2023-05-18T04:02:58.031Z,102430.61
2023-05-18T04:05:47.495Z,102433.71
2023-05-18T04:08:19.316Z,102435.80
2023-05-18T04:10:47.877Z,102434.77
2023-05-18T04:13:17.129Z,102436.45
2023-05-18T04:15:45.008Z,102435.48
2023-05-18T04:18:13.896Z,102437.29
2023-05-18T04:20:42.525Z,102436.74
2023-05-18T04:23:10.662Z,102433.27
2023-05-18T04:25:39.603Z,102435.44
2023-05-18T04:28:08.367Z,102434.00
2023-05-18T04:30:37.882Z,102433.83
2023-05-18T04:33:06.827Z,102438.24
2023-05-18T04:35:35.759Z,102440.67
2023-05-18T04:38:06.133Z,102444.16
2023-05-18T04:40:34.570Z,102445.27
2023-05-18T04:43:29.055Z,102450.42
2023-05-18T04:45:58.794Z,102454.64
2023-05-18T04:48:26.909Z,102459.52
2023-05-18T04:50:56.262Z,102455.83
2023-05-18T04:53:24.160Z,102462.58
2023-05-18T04:55:54.710Z,102463.48
2023-05-18T04:58:23.958Z,102465.05
2023-05-18T05:00:52.485Z,102468.05
2023-05-18T05:03:21.779Z,102469.88
2023-05-18T05:09:46.564Z,102475.55
2023-05-18T05:12:14.502Z,102473.36
2023-05-18T05:14:42.342Z,102471.44
2023-05-18T05:17:10.316Z,102474.37
2023-05-18T05:19:38.086Z,102473.77
2023-05-18T05:22:06.173Z,102472.92
2023-05-18T05:24:33.947Z,102472.06
2023-05-18T05:27:01.732Z,102467.36
2023-05-18T05:29:29.522Z,102464.73
2023-05-18T05:31:57.386Z,102463.11
2023-05-18T05:34:25.693Z,102464.13
2023-05-18T05:36:53.599Z,102461.94
2023-05-18T05:39:21.408Z,102460.59
2023-05-18T05:41:49.235Z,102459.73
2023-05-18T05:44:17.135Z,102455.70
2023-05-18T05:46:45.030Z,102460.73
2023-05-18T05:49:13.113Z,102455.73
2023-05-18T05:51:41.234Z,102455.70
2023-05-18T05:54:10.764Z,102456.97
2023-05-18T05:56:39.051Z,102460.23
2023-05-18T05:59:06.917Z,102458.41
2023-05-18T06:01:34.991Z,102459.20
2023-05-18T06:04:04.378Z,102453.11
2023-05-18T06:06:32.438Z,102449.19
2023-05-18T06:09:01.048Z,102450.96
2023-05-18T06:11:28.808Z,102447.88
2023-05-18T06:13:56.687Z,102449.58
2023-05-18T06:16:25.144Z,102454.29
2023-05-18T06:18:53.057Z,102448.67
2023-05-18T06:21:20.901Z,102452.70
2023-05-18T06:23:48.937Z,102457.71
2023-05-18T06:26:17.324Z,102462.10
2023-05-18T06:28:45.291Z,102463.14
2023-05-18T06:31:13.105Z,102466.09
2023-05-18T06:33:41.395Z,102465.54
2023-05-18T06:36:09.497Z,102459.54
2023-05-18T06:38:37.647Z,102464.06
2023-05-18T06:41:05.570Z,102457.27
2023-05-18T06:43:33.603Z,102461.14
2023-05-18T06:46:01.596Z,102458.46
2023-05-18T06:48:29.652Z,102458.23
2023-05-18T06:50:57.736Z,102461.91
2023-05-18T06:53:26.500Z,102465.65
2023-05-18T06:55:54.301Z,102465.94
2023-05-18T06:58:22.797Z,102466.92
2023-05-18T07:00:51.264Z,102463.20
2023-05-18T07:03:19.070Z,102464.61
2023-05-18T07:05:47.083Z,102462.13
2023-05-18T07:08:14.850Z,102466.56
2023-05-18T07:10:42.800Z,102467.77
2023-05-18T07:13:10.865Z,102473.82
2023-05-18T07:15:38.991Z,102478.60
2023-05-18T07:18:08.199Z,102481.21
2023-05-18T07:20:36.259Z,102481.73
2023-05-18T07:23:04.287Z,102485.95
2023-05-18T07:25:32.552Z,102483.91
2023-05-18T07:28:00.716Z,102483.48
2023-05-18T07:30:28.839Z,102487.73
2023-05-18T07:32:56.956Z,102490.23
2023-05-18T07:35:26.510Z,102492.55
2023-05-18T07:37:54.360Z,102488.98
2023-05-18T07:40:22.408Z,102487.89
2023-05-18T07:42:50.383Z,102487.34
2023-05-18T07:45:18.082Z,102487.42
2023-05-18T07:47:45.972Z,102488.49
2023-05-18T07:50:13.847Z,102490.15
2023-05-18T07:52:41.640Z,102488.59
2023-05-18T07:55:09.814Z,102491.55
2023-05-18T07:57:37.611Z,102491.30
2023-05-18T08:00:06.704Z,102490.52
2023-05-18T08:02:34.606Z,102489.38
2023-05-18T08:05:03.000Z,102484.91
2023-05-18T08:07:33.016Z,102485.72
2023-05-18T08:10:01.101Z,102485.05
2023-05-18T08:12:30.072Z,102483.62
2023-05-18T08:14:57.945Z,102481.94
2023-05-18T08:17:26.193Z,102482.05
2023-05-18T08:19:54.760Z,102481.59
2023-05-18T08:22:22.575Z,102478.46
2023-05-18T08:24:50.864Z,102478.88
2023-05-18T08:27:20.075Z,102481.05
2023-05-18T08:29:47.821Z,102478.25
2023-05-18T08:32:15.911Z,102477.36
2023-05-18T08:34:43.991Z,102477.80
2023-05-18T08:37:11.749Z,102475.80
2023-05-18T08:39:40.490Z,102477.38
2023-05-18T08:42:16.295Z,102474.65
2023-05-18T08:44:51.730Z,102471.91
2023-05-18T08:47:26.145Z,102472.20
2023-05-18T08:49:56.087Z,102472.63
2023-05-18T08:52:27.854Z,102469.70
2023-05-18T08:54:57.426Z,102469.49
2023-05-18T08:57:26.484Z,102465.39
2023-05-18T08:59:55.990Z,102463.81
2023-05-18T09:02:24.358Z,102466.61
2023-05-18T09:04:53.410Z,102466.77
2023-05-18T09:07:22.030Z,102463.45
2023-05-18T09:09:49.858Z,102462.44
2023-05-18T09:12:18.963Z,102459.17
2023-05-18T09:14:46.960Z,102459.44
2023-05-18T09:17:14.830Z,102456.40
2023-05-18T09:19:42.643Z,102454.89
2023-05-18T09:22:10.886Z,102454.69
2023-05-18T09:24:39.077Z,102453.08
2023-05-18T09:27:06.922Z,102451.48
2023-05-18T09:29:34.797Z,102453.21
2023-05-18T09:32:06.952Z,102448.89
2023-05-18T09:34:42.299Z,102448.79
2023-05-18T09:37:10.040Z,102450.16
2023-05-18T09:39:37.898Z,102447.20
2023-05-18T09:42:05.968Z,102448.58
2023-05-18T09:44:34.309Z,102443.39
2023-05-18T09:47:03.041Z,102441.10
2023-05-18T09:49:31.576Z,102439.20
2023-05-18T09:52:00.369Z,102440.64
2023-05-18T09:54:28.358Z,102444.05
2023-05-18T09:57:09.586Z,102436.26
2023-05-18T09:59:38.645Z,102436.67
2023-05-18T10:02:08.950Z,102429.92
2023-05-18T10:04:40.621Z,102431.69
2023-05-18T10:07:12.620Z,102429.75
2023-05-18T10:09:41.690Z,102430.98
2023-05-18T10:12:13.523Z,102428.88
2023-05-18T10:14:43.250Z,102429.79
2023-05-18T10:17:16.781Z,102434.16
2023-05-18T10:19:46.645Z,102431.42
2023-05-18T10:22:19.722Z,102430.17
2023-05-18T10:24:50.921Z,102432.77
2023-05-18T10:27:22.100Z,102427.33
2023-05-18T10:29:52.524Z,102428.02
2023-05-18T10:32:23.399Z,102430.27
2023-05-18T10:34:52.951Z,102433.23
2023-05-18T10:37:22.296Z,102425.95
2023-05-18T10:39:54.968Z,102424.15
2023-05-18T10:42:23.773Z,102421.01
2023-05-18T10:44:53.351Z,102417.31
2023-05-18T10:47:22.225Z,102417.98
2023-05-18T10:49:50.150Z,102419.27
2023-05-18T10:52:18.807Z,102421.55
2023-05-18T10:54:47.290Z,102418.09
2023-05-18T10:57:16.581Z,102415.81
2023-05-18T10:59:47.449Z,102417.40
2023-05-18T11:02:18.051Z,102415.45
2023-05-18T11:04:48.141Z,102417.66
2023-05-18T11:07:16.043Z,102418.27
2023-05-18T11:09:44.779Z,102420.23
2023-05-18T11:12:14.161Z,102417.22
2023-05-18T11:14:49.517Z,102416.86
2023-05-18T11:17:25.066Z,102417.27
2023-05-18T11:20:02.293Z,102417.65
2023-05-18T11:22:49.195Z,102419.73
2023-05-18T11:25:26.696Z,102419.58
2023-05-18T11:27:56.645Z,102419.58
2023-05-18T11:30:45.116Z,102417.95
2023-05-18T11:33:27.167Z,102419.23
2023-05-18T11:35:57.938Z,102417.58
2023-05-18T11:38:45.988Z,102416.11
2023-05-18T11:41:33.020Z,102412.42
2023-05-18T11:44:06.759Z,102411.30
2023-05-18T11:46:34.865Z,102408.29
2023-05-18T11:49:03.713Z,102408.99
2023-05-18T11:51:32.718Z,102409.58
2023-05-18T11:54:01.204Z,102408.63
2023-05-18T11:56:35.554Z,102405.08
2023-05-18T11:59:31.780Z,102402.65
2023-05-18T12:02:01.246Z,102402.53
2023-05-18T12:04:30.198Z,102396.86
2023-05-18T12:06:58.573Z,102394.06
2023-05-18T12:09:27.323Z,102396.39
2023-05-18T12:11:55.590Z,102395.52
2023-05-18T12:14:23.641Z,102394.82
2023-05-18T12:16:52.177Z,102395.48
2023-05-18T12:19:22.267Z,102392.08
2023-05-18T12:21:50.709Z,102394.59
2023-05-18T12:24:18.545Z,102390.51
2023-05-18T12:26:46.859Z,102383.34
2023-05-18T12:29:20.184Z,102379.46
2023-05-18T12:31:48.220Z,102378.71
2023-05-18T12:34:16.196Z,102375.40
2023-05-18T12:37:02.653Z,102373.70
2023-05-18T12:39:32.346Z,102371.94
2023-05-18T12:42:12.306Z,102372.60
2023-05-18T12:44:46.310Z,102368.75
2023-05-18T12:47:14.998Z,102363.91
2023-05-18T12:49:43.855Z,102360.58
2023-05-18T12:52:15.615Z,102360.30
2023-05-18T12:54:50.459Z,102355.96
2023-05-18T12:57:21.556Z,102353.88
2023-05-18T12:59:53.283Z,102347.66
2023-05-18T13:02:35.877Z,102346.51
2023-05-18T13:05:10.352Z,102342.53
2023-05-18T13:07:42.567Z,102337.81
2023-05-18T13:10:11.929Z,102334.88
2023-05-18T13:12:41.370Z,102333.70
2023-05-18T13:15:23.258Z,102332.92
2023-05-18T13:18:03.731Z,102333.65
2023-05-18T13:20:37.883Z,102327.17
2023-05-18T13:23:08.029Z,102327.36
2023-05-18T13:25:36.542Z,102321.20
2023-05-18T13:28:05.706Z,102322.46
2023-05-18T13:30:33.792Z,102322.34
2023-05-18T13:33:12.387Z,102324.25
2023-05-18T13:35:42.412Z,102326.56
2023-05-18T13:38:11.206Z,102326.65
2023-05-18T13:40:39.599Z,102326.08
2023-05-18T13:43:08.816Z,102330.02
2023-05-18T13:45:43.938Z,102330.02
2023-05-18T13:48:14.593Z,102323.77
2023-05-18T13:51:06.179Z,102324.67
2023-05-18T13:53:42.018Z,102324.59
2023-05-18T13:56:12.978Z,102324.95
2023-05-18T13:58:46.608Z,102318.46
2023-05-18T14:01:17.921Z,102317.50
2023-05-18T14:03:55.973Z,102315.00
2023-05-18T14:06:24.100Z,102316.08
2023-05-18T14:08:54.686Z,102313.19
2023-05-18T14:11:38.355Z,102311.38
2023-05-18T14:14:38.549Z,102310.30
2023-05-18T14:21:07.853Z,102305.98
2023-05-18T14:23:35.972Z,102306.09
2023-05-18T14:26:15.159Z,102301.03
2023-05-18T14:29:13.872Z,102300.94
2023-05-18T14:32:21.263Z,102305.04
2023-05-18T14:35:03.507Z,102304.09
2023-05-18T14:37:38.990Z,102301.49
2023-05-18T14:40:15.260Z,102302.23
2023-05-18T14:42:50.353Z,102297.86
2023-05-18T14:45:32.947Z,102293.10
2023-05-18T14:48:41.324Z,102288.23
2023-05-18T14:51:22.174Z,102290.00
2023-05-18T14:54:30.946Z,102291.95
2023-05-18T14:57:12.873Z,102289.95
2023-05-18T15:00:23.626Z,102291.42
2023-05-18T15:03:21.311Z,102289.13
2023-05-18T15:06:22.476Z,102289.93
2023-05-18T15:09:31.956Z,102295.12
2023-05-18T15:13:33.355Z,102294.27
2023-05-18T15:24:36.392Z,102289.33
2023-05-18T15:27:38.623Z,102290.61
2023-05-18T15:30:47.208Z,102292.92
2023-05-18T15:33:47.065Z,102293.66
2023-05-18T15:36:58.133Z,102289.77
2023-05-18T15:40:10.244Z,102291.23
2023-05-18T15:43:06.795Z,102291.55
2023-05-18T15:46:15.311Z,102291.48
2023-05-18T15:49:23.736Z,102288.70
2023-05-18T15:52:32.256Z,102283.30
2023-05-18T15:55:40.554Z,102285.47
2023-05-18T15:58:49.019Z,102283.55
2023-05-18T16:01:57.491Z,102278.83
2023-05-18T16:05:06.339Z,102275.81
2023-05-18T16:08:23.023Z,102277.98
2023-05-18T16:11:06.428Z,102274.02
2023-05-18T16:14:25.023Z,102273.95
2023-05-18T16:17:37.218Z,102275.54
2023-05-18T16:20:45.964Z,102273.98
2023-05-18T16:32:08.990Z,102268.64
2023-05-18T16:32:23.504Z,102278.78
2023-05-18T16:35:17.661Z,102267.21
2023-05-18T16:38:19.744Z,102264.92
2023-05-18T16:41:28.948Z,102264.90
2023-05-18T16:44:38.001Z,102269.56
2023-05-18T16:47:29.679Z,102271.06
2023-05-18T16:50:49.912Z,102270.54
2023-05-18T16:53:59.090Z,102265.23
2023-05-18T17:00:31.423Z,102266.96
2023-05-18T17:03:40.194Z,102263.86
2023-05-18T17:10:39.950Z,102264.48
2023-05-18T17:13:57.266Z,102265.77
2023-05-18T17:20:40.672Z,102263.30
2023-05-18T17:23:49.297Z,102260.27
2023-05-18T17:26:57.861Z,102263.98
2023-05-18T17:30:06.420Z,102260.13
2023-05-18T17:33:15.029Z,102259.15
2023-05-18T17:36:16.125Z,102256.70
2023-05-18T17:39:24.547Z,102257.36
2023-05-18T17:41:54.524Z,102256.21
2023-05-18T17:44:44.604Z,102254.08
2023-05-18T17:47:48.438Z,102258.13
2023-05-18T17:50:56.828Z,102254.42
2023-05-18T17:53:58.175Z,102255.33
2023-05-18T17:57:06.657Z,102259.24
2023-05-18T18:00:15.015Z,102260.78
2023-05-18T18:03:23.974Z,102262.15
2023-05-18T18:06:25.870Z,102257.38
2023-05-18T18:09:34.243Z,102251.37
2023-05-18T18:12:42.642Z,102253.08
2023-05-18T18:15:51.222Z,102259.02
2023-05-18T18:18:50.609Z,102261.13
2023-05-18T18:21:38.982Z,102262.91
2023-05-18T18:24:47.404Z,102263.08
2023-05-18T18:27:58.068Z,102263.46
2023-05-18T18:31:07.796Z,102263.20
2023-05-18T18:34:16.400Z,102264.80
2023-05-18T18:37:27.023Z,102266.72
2023-05-18T18:40:28.162Z,102271.63
2023-05-18T18:43:36.646Z,102274.13
2023-05-18T18:46:27.176Z,102275.27
2023-05-18T18:49:35.660Z,102276.19
2023-05-18T18:52:44.075Z,102279.15
2023-05-18T18:55:35.227Z,102284.50
2023-05-18T18:58:43.897Z,102283.10
2023-05-18T19:01:32.314Z,102287.48
2023-05-18T19:04:41.022Z,102288.69
2023-05-18T19:07:34.948Z,102288.09
2023-05-18T19:10:43.424Z,102287.67
2023-05-18T19:13:51.721Z,102287.10
2023-05-18T19:17:02.628Z,102286.81
2023-05-18T19:20:11.031Z,102281.36
2023-05-18T19:23:19.568Z,102284.45
2023-05-18T19:26:30.339Z,102283.08
2023-05-18T19:29:31.838Z,102287.34
2023-05-18T19:32:40.724Z,102292.73
2023-05-18T19:35:40.617Z,102289.69
2023-05-18T19:38:47.961Z,102295.63
2023-05-18T19:41:58.521Z,102300.28
2023-05-18T19:45:06.923Z,102306.42
2023-05-18T19:48:15.646Z,102309.41
2023-05-18T19:51:26.778Z,102313.66
2023-05-18T19:54:35.448Z,102316.05
2023-05-18T19:57:44.712Z,102318.45
2023-05-18T20:00:53.161Z,102319.49
2023-05-18T20:04:01.846Z,102323.40
2023-05-18T20:07:10.258Z,102328.96
2023-05-18T20:10:18.613Z,102330.10
2023-05-18T20:13:27.085Z,102332.10
2023-05-18T20:16:35.552Z,102331.05
2023-05-18T20:19:38.500Z,102336.25
2023-05-18T20:22:47.045Z,102339.36
2023-05-18T20:25:55.541Z,102339.40
2023-05-18T20:29:03.937Z,102343.05
2023-05-18T20:32:13.619Z,102345.64
2023-05-18T20:35:22.013Z,102348.14
2023-05-18T20:38:30.632Z,102351.95
2023-05-18T20:41:39.513Z,102348.52
2023-05-18T20:44:48.289Z,102348.44
2023-05-18T20:47:56.899Z,102347.58
2023-05-18T20:51:01.899Z,102343.38
2023-05-18T20:53:50.297Z,102346.32
2023-05-18T20:56:58.742Z,102351.11
2023-05-18T21:00:01.974Z,102354.67
2023-05-18T21:03:10.191Z,102352.67
2023-05-18T21:06:18.755Z,102353.19
2023-05-18T21:09:27.148Z,102356.21
2023-05-18T21:12:28.296Z,102352.27
2023-05-18T21:15:19.073Z,102353.02
2023-05-18T21:18:27.621Z,102352.92
2023-05-18T21:21:35.964Z,102350.73
2023-05-18T21:24:44.550Z,102353.80
2023-05-18T21:27:54.466Z,102353.24
2023-05-18T21:31:02.947Z,102352.84
2023-05-18T21:33:52.818Z,102352.70
2023-05-18T21:37:01.359Z,102352.80
2023-05-18T21:39:58.168Z,102356.44
2023-05-18T21:43:06.771Z,102360.67
2023-05-18T21:46:15.211Z,102363.48
2023-05-18T21:49:06.303Z,102365.17
2023-05-18T21:52:14.685Z,102364.45
2023-05-18T21:55:23.299Z,102360.30
2023-05-18T21:58:31.779Z,102366.05
2023-05-18T22:01:40.327Z,102358.31
2023-05-18T22:04:27.100Z,102361.42
2023-05-18T22:07:24.528Z,102358.54
2023-05-18T22:10:33.248Z,102361.58
2023-05-18T22:13:43.936Z,102358.38
2023-05-18T22:16:42.318Z,102361.73
2023-05-18T22:19:52.942Z,102358.88
2023-05-18T22:23:01.296Z,102359.28
2023-05-18T22:26:09.806Z,102359.21
2023-05-18T22:29:18.285Z,102361.04
2023-05-18T22:32:05.278Z,102363.39
2023-05-18T22:35:12.630Z,102363.09
2023-05-18T22:38:17.867Z,102366.85
2023-05-18T22:41:26.359Z,102370.29
2023-05-18T22:44:35.039Z,102374.83
2023-05-18T22:47:43.449Z,102378.14
2023-05-18T22:50:52.220Z,102373.42
2023-05-18T22:54:01.100Z,102376.29
2023-05-18T22:57:09.766Z,102381.55
2023-05-18T23:00:18.217Z,102383.64
2023-05-18T23:03:26.777Z,102389.27
2023-05-18T23:06:35.460Z,102390.29
2023-05-18T23:09:43.886Z,102385.89
2023-05-18T23:12:36.966Z,102381.63
2023-05-18T23:15:45.580Z,102383.94
2023-05-18T23:18:49.025Z,102384.15
2023-05-18T23:21:57.661Z,102386.26
2023-05-18T23:25:06.111Z,102383.61
2023-05-18T23:28:14.496Z,102381.21
2023-05-18T23:31:26.069Z,102377.33
2023-05-18T23:34:24.908Z,102375.39
2023-05-18T23:37:33.352Z,102370.02
2023-05-18T23:40:43.193Z,102374.76
2023-05-18T23:43:51.733Z,102371.20
2023-05-18T23:47:00.147Z,102372.45
2023-05-18T23:50:08.739Z,102374.34
2023-05-18T23:53:17.154Z,102376.65
2023-05-18T23:56:25.868Z,102373.45
2023-05-18T23:59:34.422Z,102371.01
